sensor_id;sensor_type;location;lat;lon;timestamp;P1;durP1;ratioP1;P2;durP2;ratioP2
39016;SDS011;24784;45.582;5.276;2023-02-15T00:01:23;34.50;;;21.67;;
39016;SDS011;24784;45.582;5.276;2023-02-15T00:03:49;38.65;;;23.08;;
39016;SDS011;24784;45.582;5.276;2023-02-15T00:06:15;40.47;;;26.85;;
39016;SDS011;24784;45.582;5.276;2023-02-15T00:08:41;37.63;;;23.45;;
39016;SDS011;24784;45.582;5.276;2023-02-15T00:11:08;38.65;;;23.23;;
39016;SDS011;24784;45.582;5.276;2023-02-15T00:13:35;34.85;;;20.92;;
39016;SDS011;24784;45.582;5.276;2023-02-15T00:16:03;33.60;;;20.25;;
39016;SDS011;24784;45.582;5.276;2023-02-15T00:18:31;37.10;;;21.42;;
39016;SDS011;24784;45.582;5.276;2023-02-15T00:20:57;38.60;;;21.25;;
39016;SDS011;24784;45.582;5.276;2023-02-15T00:23:23;38.80;;;20.27;;
39016;SDS011;24784;45.582;5.276;2023-02-15T00:25:51;38.22;;;20.33;;
39016;SDS011;24784;45.582;5.276;2023-02-15T00:28:16;33.20;;;20.15;;
39016;SDS011;24784;45.582;5.276;2023-02-15T00:30:42;37.38;;;20.35;;
39016;SDS011;24784;45.582;5.276;2023-02-15T00:33:08;37.72;;;21.45;;
39016;SDS011;24784;45.582;5.276;2023-02-15T00:35:33;36.03;;;20.88;;
39016;SDS011;24784;45.582;5.276;2023-02-15T00:37:59;38.45;;;20.92;;
39016;SDS011;24784;45.582;5.276;2023-02-15T00:40:25;34.83;;;20.67;;
39016;SDS011;24784;45.582;5.276;2023-02-15T00:42:51;33.65;;;20.50;;
39016;SDS011;24784;45.582;5.276;2023-02-15T00:45:16;42.50;;;20.98;;
39016;SDS011;24784;45.582;5.276;2023-02-15T00:47:42;37.58;;;21.20;;
39016;SDS011;24784;45.582;5.276;2023-02-15T00:50:08;40.42;;;20.50;;
39016;SDS011;24784;45.582;5.276;2023-02-15T00:52:34;33.22;;;20.75;;
39016;SDS011;24784;45.582;5.276;2023-02-15T00:54:59;39.13;;;20.70;;
39016;SDS011;24784;45.582;5.276;2023-02-15T00:57:25;38.13;;;21.02;;
39016;SDS011;24784;45.582;5.276;2023-02-15T00:59:51;38.33;;;22.50;;
39016;SDS011;24784;45.582;5.276;2023-02-15T01:02:16;38.35;;;21.75;;
39016;SDS011;24784;45.582;5.276;2023-02-15T01:04:42;40.38;;;21.63;;
39016;SDS011;24784;45.582;5.276;2023-02-15T01:07:08;39.13;;;21.95;;
39016;SDS011;24784;45.582;5.276;2023-02-15T01:09:34;40.63;;;21.60;;
39016;SDS011;24784;45.582;5.276;2023-02-15T01:11:59;36.75;;;21.40;;
39016;SDS011;24784;45.582;5.276;2023-02-15T01:14:25;35.67;;;20.52;;
39016;SDS011;24784;45.582;5.276;2023-02-15T01:16:51;38.00;;;21.75;;
39016;SDS011;24784;45.582;5.276;2023-02-15T01:19:16;42.17;;;22.65;;
39016;SDS011;24784;45.582;5.276;2023-02-15T01:21:42;42.47;;;22.48;;
39016;SDS011;24784;45.582;5.276;2023-02-15T01:24:12;38.55;;;21.52;;
39016;SDS011;24784;45.582;5.276;2023-02-15T01:26:38;40.22;;;23.17;;
39016;SDS011;24784;45.582;5.276;2023-02-15T01:29:04;38.15;;;21.50;;
39016;SDS011;24784;45.582;5.276;2023-02-15T01:31:30;40.67;;;21.67;;
39016;SDS011;24784;45.582;5.276;2023-02-15T01:33:56;42.28;;;22.90;;
39016;SDS011;24784;45.582;5.276;2023-02-15T01:36:21;41.47;;;23.90;;
39016;SDS011;24784;45.582;5.276;2023-02-15T01:38:47;43.83;;;24.02;;
39016;SDS011;24784;45.582;5.276;2023-02-15T01:41:14;40.60;;;24.38;;
39016;SDS011;24784;45.582;5.276;2023-02-15T01:43:57;44.00;;;24.25;;
39016;SDS011;24784;45.582;5.276;2023-02-15T01:46:35;46.80;;;23.20;;
39016;SDS011;24784;45.582;5.276;2023-02-15T01:49:13;39.33;;;23.00;;
39016;SDS011;24784;45.582;5.276;2023-02-15T01:51:42;45.28;;;25.67;;
39016;SDS011;24784;45.582;5.276;2023-02-15T01:54:15;39.90;;;22.38;;
39016;SDS011;24784;45.582;5.276;2023-02-15T01:56:52;42.72;;;24.60;;
39016;SDS011;24784;45.582;5.276;2023-02-15T01:59:21;46.10;;;24.00;;
39016;SDS011;24784;45.582;5.276;2023-02-15T02:01:51;40.03;;;22.98;;
39016;SDS011;24784;45.582;5.276;2023-02-15T02:07:00;49.53;;;27.13;;
39016;SDS011;24784;45.582;5.276;2023-02-15T02:09:27;48.97;;;26.40;;
39016;SDS011;24784;45.582;5.276;2023-02-15T02:11:53;43.83;;;24.48;;
39016;SDS011;24784;45.582;5.276;2023-02-15T02:14:20;48.45;;;25.80;;
39016;SDS011;24784;45.582;5.276;2023-02-15T02:28:33;48.13;;;26.20;;
39016;SDS011;24784;45.582;5.276;2023-02-15T02:36:25;47.90;;;26.80;;
39016;SDS011;24784;45.582;5.276;2023-02-15T02:49:51;47.88;;;26.83;;
39016;SDS011;24784;45.582;5.276;2023-02-15T02:54:57;49.60;;;27.10;;
39016;SDS011;24784;45.582;5.276;2023-02-15T02:57:25;48.67;;;26.27;;
39016;SDS011;24784;45.582;5.276;2023-02-15T02:59:53;54.13;;;27.33;;
39016;SDS011;24784;45.582;5.276;2023-02-15T03:02:27;49.58;;;26.75;;
39016;SDS011;24784;45.582;5.276;2023-02-15T03:07:28;51.28;;;25.98;;
39016;SDS011;24784;45.582;5.276;2023-02-15T03:10:00;53.10;;;28.42;;
39016;SDS011;24784;45.582;5.276;2023-02-15T03:12:31;56.92;;;28.13;;
39016;SDS011;24784;45.582;5.276;2023-02-15T03:15:01;49.42;;;27.02;;
39016;SDS011;24784;45.582;5.276;2023-02-15T03:17:31;52.95;;;26.45;;
39016;SDS011;24784;45.582;5.276;2023-02-15T03:20:02;48.50;;;26.55;;
39016;SDS011;24784;45.582;5.276;2023-02-15T03:22:34;52.38;;;26.65;;
39016;SDS011;24784;45.582;5.276;2023-02-15T03:25:11;47.97;;;25.35;;
39016;SDS011;24784;45.582;5.276;2023-02-15T03:27:54;50.33;;;25.35;;
39016;SDS011;24784;45.582;5.276;2023-02-15T03:30:24;50.50;;;27.17;;
39016;SDS011;24784;45.582;5.276;2023-02-15T03:32:53;47.40;;;27.70;;
39016;SDS011;24784;45.582;5.276;2023-02-15T03:35:22;67.93;;;30.25;;
39016;SDS011;24784;45.582;5.276;2023-02-15T03:37:55;79.43;;;35.03;;
39016;SDS011;24784;45.582;5.276;2023-02-15T03:40:29;89.72;;;36.83;;
39016;SDS011;24784;45.582;5.276;2023-02-15T03:46:33;81.88;;;37.63;;
39016;SDS011;24784;45.582;5.276;2023-02-15T03:49:24;72.47;;;34.95;;
39016;SDS011;24784;45.582;5.276;2023-02-15T03:51:55;88.03;;;42.67;;
39016;SDS011;24784;45.582;5.276;2023-02-15T03:54:25;67.70;;;34.10;;
39016;SDS011;24784;45.582;5.276;2023-02-15T03:57:11;94.20;;;41.20;;
39016;SDS011;24784;45.582;5.276;2023-02-15T03:59:55;73.30;;;35.40;;
39016;SDS011;24784;45.582;5.276;2023-02-15T04:02:52;59.35;;;31.20;;
39016;SDS011;24784;45.582;5.276;2023-02-15T04:05:31;87.72;;;40.38;;
39016;SDS011;24784;45.582;5.276;2023-02-15T04:07:58;69.85;;;35.85;;
39016;SDS011;24784;45.582;5.276;2023-02-15T04:10:24;60.58;;;32.50;;
39016;SDS011;24784;45.582;5.276;2023-02-15T04:13:08;66.53;;;31.40;;
39016;SDS011;24784;45.582;5.276;2023-02-15T04:15:34;57.83;;;32.95;;
39016;SDS011;24784;45.582;5.276;2023-02-15T04:18:18;59.45;;;31.15;;
39016;SDS011;24784;45.582;5.276;2023-02-15T04:20:44;56.03;;;31.75;;
39016;SDS011;24784;45.582;5.276;2023-02-15T04:23:29;60.80;;;30.02;;
39016;SDS011;24784;45.582;5.276;2023-02-15T04:26:14;55.47;;;31.13;;
39016;SDS011;24784;45.582;5.276;2023-02-15T04:28:40;54.97;;;30.38;;
39016;SDS011;24784;45.582;5.276;2023-02-15T04:31:06;56.90;;;30.95;;
39016;SDS011;24784;45.582;5.276;2023-02-15T04:33:31;53.40;;;28.02;;
39016;SDS011;24784;45.582;5.276;2023-02-15T04:35:57;51.30;;;30.60;;
39016;SDS011;24784;45.582;5.276;2023-02-15T04:38:23;52.28;;;28.73;;
39016;SDS011;24784;45.582;5.276;2023-02-15T04:40:49;47.88;;;27.80;;
39016;SDS011;24784;45.582;5.276;2023-02-15T04:43:16;51.45;;;26.83;;
39016;SDS011;24784;45.582;5.276;2023-02-15T04:45:49;51.28;;;27.17;;
39016;SDS011;24784;45.582;5.276;2023-02-15T04:48:16;50.92;;;27.00;;
39016;SDS011;24784;45.582;5.276;2023-02-15T04:50:42;53.00;;;27.50;;
39016;SDS011;24784;45.582;5.276;2023-02-15T04:53:08;49.85;;;26.85;;
39016;SDS011;24784;45.582;5.276;2023-02-15T04:55:34;46.80;;;27.83;;
39016;SDS011;24784;45.582;5.276;2023-02-15T04:58:00;47.63;;;26.88;;
39016;SDS011;24784;45.582;5.276;2023-02-15T05:00:26;50.90;;;27.38;;
39016;SDS011;24784;45.582;5.276;2023-02-15T05:02:52;50.67;;;28.83;;
39016;SDS011;24784;45.582;5.276;2023-02-15T05:05:18;55.63;;;28.85;;
39016;SDS011;24784;45.582;5.276;2023-02-15T05:07:44;56.60;;;31.17;;
39016;SDS011;24784;45.582;5.276;2023-02-15T05:10:10;72.28;;;33.35;;
39016;SDS011;24784;45.582;5.276;2023-02-15T05:12:35;65.35;;;33.33;;
39016;SDS011;24784;45.582;5.276;2023-02-15T05:15:01;54.13;;;29.73;;
39016;SDS011;24784;45.582;5.276;2023-02-15T05:17:27;67.10;;;35.08;;
39016;SDS011;24784;45.582;5.276;2023-02-15T05:19:53;60.00;;;32.85;;
39016;SDS011;24784;45.582;5.276;2023-02-15T05:22:18;68.25;;;34.45;;
39016;SDS011;24784;45.582;5.276;2023-02-15T05:24:44;58.55;;;33.05;;
39016;SDS011;24784;45.582;5.276;2023-02-15T05:27:28;65.00;;;31.65;;
39016;SDS011;24784;45.582;5.276;2023-02-15T05:30:13;56.28;;;31.00;;
39016;SDS011;24784;45.582;5.276;2023-02-15T05:32:39;55.33;;;28.73;;
39016;SDS011;24784;45.582;5.276;2023-02-15T05:35:05;54.13;;;28.50;;
39016;SDS011;24784;45.582;5.276;2023-02-15T05:37:32;57.95;;;29.10;;
39016;SDS011;24784;45.582;5.276;2023-02-15T05:39:58;50.92;;;28.73;;
39016;SDS011;24784;45.582;5.276;2023-02-15T05:42:24;61.85;;;30.02;;
39016;SDS011;24784;45.582;5.276;2023-02-15T05:44:49;65.03;;;31.92;;
39016;SDS011;24784;45.582;5.276;2023-02-15T05:47:15;65.20;;;33.13;;
39016;SDS011;24784;45.582;5.276;2023-02-15T05:49:41;56.38;;;30.85;;
39016;SDS011;24784;45.582;5.276;2023-02-15T05:52:07;61.08;;;31.67;;
39016;SDS011;24784;45.582;5.276;2023-02-15T05:54:33;59.47;;;29.92;;
39016;SDS011;24784;45.582;5.276;2023-02-15T05:56:58;63.65;;;31.40;;
39016;SDS011;24784;45.582;5.276;2023-02-15T05:59:24;60.03;;;31.75;;
39016;SDS011;24784;45.582;5.276;2023-02-15T06:01:50;60.25;;;31.42;;
39016;SDS011;24784;45.582;5.276;2023-02-15T06:04:16;70.68;;;32.97;;
39016;SDS011;24784;45.582;5.276;2023-02-15T06:06:41;60.20;;;31.77;;
39016;SDS011;24784;45.582;5.276;2023-02-15T06:09:07;62.38;;;32.67;;
39016;SDS011;24784;45.582;5.276;2023-02-15T06:11:33;68.82;;;36.42;;
39016;SDS011;24784;45.582;5.276;2023-02-15T06:13:58;60.65;;;32.13;;
39016;SDS011;24784;45.582;5.276;2023-02-15T06:16:24;59.20;;;31.30;;
39016;SDS011;24784;45.582;5.276;2023-02-15T06:18:50;59.63;;;29.92;;
39016;SDS011;24784;45.582;5.276;2023-02-15T06:21:16;53.22;;;28.90;;
39016;SDS011;24784;45.582;5.276;2023-02-15T06:23:42;57.50;;;29.67;;
39016;SDS011;24784;45.582;5.276;2023-02-15T06:26:08;55.40;;;30.23;;
39016;SDS011;24784;45.582;5.276;2023-02-15T06:28:34;64.55;;;31.45;;
39016;SDS011;24784;45.582;5.276;2023-02-15T06:30:59;59.15;;;29.95;;
39016;SDS011;24784;45.582;5.276;2023-02-15T06:33:25;64.13;;;33.03;;
39016;SDS011;24784;45.582;5.276;2023-02-15T06:35:51;66.85;;;32.85;;
39016;SDS011;24784;45.582;5.276;2023-02-15T06:38:16;65.68;;;34.35;;
39016;SDS011;24784;45.582;5.276;2023-02-15T06:40:42;66.50;;;33.30;;
39016;SDS011;24784;45.582;5.276;2023-02-15T06:43:08;79.68;;;42.67;;
39016;SDS011;24784;45.582;5.276;2023-02-15T06:45:33;61.50;;;33.03;;
39016;SDS011;24784;45.582;5.276;2023-02-15T06:47:59;61.53;;;30.27;;
39016;SDS011;24784;45.582;5.276;2023-02-15T06:50:25;62.75;;;32.72;;
39016;SDS011;24784;45.582;5.276;2023-02-15T06:52:55;65.65;;;32.10;;
39016;SDS011;24784;45.582;5.276;2023-02-15T06:55:21;62.83;;;33.10;;
39016;SDS011;24784;45.582;5.276;2023-02-15T06:57:47;63.88;;;32.83;;
39016;SDS011;24784;45.582;5.276;2023-02-15T07:00:13;69.63;;;32.45;;
39016;SDS011;24784;45.582;5.276;2023-02-15T07:02:39;61.60;;;32.95;;
39016;SDS011;24784;45.582;5.276;2023-02-15T07:05:05;81.85;;;45.63;;
39016;SDS011;24784;45.582;5.276;2023-02-15T07:07:31;70.78;;;38.75;;
39016;SDS011;24784;45.582;5.276;2023-02-15T07:09:56;64.20;;;33.78;;
39016;SDS011;24784;45.582;5.276;2023-02-15T07:12:22;61.38;;;30.70;;
39016;SDS011;24784;45.582;5.276;2023-02-15T07:15:06;63.13;;;34.63;;
39016;SDS011;24784;45.582;5.276;2023-02-15T07:17:34;66.47;;;35.75;;
39016;SDS011;24784;45.582;5.276;2023-02-15T07:20:01;66.30;;;34.72;;
39016;SDS011;24784;45.582;5.276;2023-02-15T07:22:32;59.28;;;32.85;;
39016;SDS011;24784;45.582;5.276;2023-02-15T07:25:00;59.83;;;31.85;;
39016;SDS011;24784;45.582;5.276;2023-02-15T07:27:27;59.42;;;32.13;;
39016;SDS011;24784;45.582;5.276;2023-02-15T07:29:53;61.22;;;31.58;;
39016;SDS011;24784;45.582;5.276;2023-02-15T07:32:18;62.53;;;31.17;;
39016;SDS011;24784;45.582;5.276;2023-02-15T07:34:44;62.88;;;33.30;;
39016;SDS011;24784;45.582;5.276;2023-02-15T07:37:10;63.60;;;33.60;;
39016;SDS011;24784;45.582;5.276;2023-02-15T07:39:35;64.65;;;32.55;;
39016;SDS011;24784;45.582;5.276;2023-02-15T07:42:01;67.85;;;33.42;;
39016;SDS011;24784;45.582;5.276;2023-02-15T07:44:27;62.55;;;31.90;;
39016;SDS011;24784;45.582;5.276;2023-02-15T07:46:53;65.03;;;32.15;;
39016;SDS011;24784;45.582;5.276;2023-02-15T07:49:18;61.67;;;32.25;;
39016;SDS011;24784;45.582;5.276;2023-02-15T07:51:44;65.20;;;32.80;;
39016;SDS011;24784;45.582;5.276;2023-02-15T07:54:10;59.22;;;31.95;;
39016;SDS011;24784;45.582;5.276;2023-02-15T07:56:36;65.68;;;31.60;;
39016;SDS011;24784;45.582;5.276;2023-02-15T07:59:02;57.15;;;30.45;;
39016;SDS011;24784;45.582;5.276;2023-02-15T08:01:31;68.30;;;32.25;;
39016;SDS011;24784;45.582;5.276;2023-02-15T08:04:01;62.30;;;31.30;;
39016;SDS011;24784;45.582;5.276;2023-02-15T08:06:30;57.13;;;29.67;;
39016;SDS011;24784;45.582;5.276;2023-02-15T08:08:57;60.17;;;31.50;;
39016;SDS011;24784;45.582;5.276;2023-02-15T08:11:23;58.42;;;30.38;;
39016;SDS011;24784;45.582;5.276;2023-02-15T08:18:54;55.95;;;29.67;;
39016;SDS011;24784;45.582;5.276;2023-02-15T08:21:21;53.65;;;28.10;;
39016;SDS011;24784;45.582;5.276;2023-02-15T08:23:48;59.33;;;28.42;;
39016;SDS011;24784;45.582;5.276;2023-02-15T08:26:13;52.95;;;29.10;;
39016;SDS011;24784;45.582;5.276;2023-02-15T08:28:40;53.85;;;29.38;;
39016;SDS011;24784;45.582;5.276;2023-02-15T08:31:07;52.85;;;28.90;;
39016;SDS011;24784;45.582;5.276;2023-02-15T08:33:35;58.20;;;29.55;;
39016;SDS011;24784;45.582;5.276;2023-02-15T08:36:02;56.60;;;30.52;;
39016;SDS011;24784;45.582;5.276;2023-02-15T08:38:30;58.50;;;29.45;;
39016;SDS011;24784;45.582;5.276;2023-02-15T08:40:57;60.20;;;32.40;;
39016;SDS011;24784;45.582;5.276;2023-02-15T08:43:23;57.92;;;30.85;;
39016;SDS011;24784;45.582;5.276;2023-02-15T08:45:49;55.38;;;30.48;;
39016;SDS011;24784;45.582;5.276;2023-02-15T08:48:14;56.58;;;29.63;;
39016;SDS011;24784;45.582;5.276;2023-02-15T08:50:40;58.58;;;32.55;;
39016;SDS011;24784;45.582;5.276;2023-02-15T08:53:06;62.22;;;32.08;;
39016;SDS011;24784;45.582;5.276;2023-02-15T08:55:31;58.88;;;31.45;;
39016;SDS011;24784;45.582;5.276;2023-02-15T08:57:57;64.13;;;32.35;;
39016;SDS011;24784;45.582;5.276;2023-02-15T09:00:23;53.83;;;30.67;;
39016;SDS011;24784;45.582;5.276;2023-02-15T09:02:50;57.60;;;28.77;;
39016;SDS011;24784;45.582;5.276;2023-02-15T09:05:15;54.63;;;30.45;;
39016;SDS011;24784;45.582;5.276;2023-02-15T09:07:41;54.05;;;27.88;;
39016;SDS011;24784;45.582;5.276;2023-02-15T09:10:07;48.45;;;26.95;;
39016;SDS011;24784;45.582;5.276;2023-02-15T09:12:33;51.75;;;27.25;;
39016;SDS011;24784;45.582;5.276;2023-02-15T09:14:58;41.70;;;24.10;;
39016;SDS011;24784;45.582;5.276;2023-02-15T09:17:24;45.45;;;22.42;;
39016;SDS011;24784;45.582;5.276;2023-02-15T09:19:50;43.22;;;24.65;;
39016;SDS011;24784;45.582;5.276;2023-02-15T09:22:15;37.45;;;22.10;;
39016;SDS011;24784;45.582;5.276;2023-02-15T09:24:41;35.10;;;19.27;;
39016;SDS011;24784;45.582;5.276;2023-02-15T09:27:07;43.58;;;23.98;;
39016;SDS011;24784;45.582;5.276;2023-02-15T09:29:33;43.13;;;24.88;;
39016;SDS011;24784;45.582;5.276;2023-02-15T09:31:58;49.90;;;28.25;;
39016;SDS011;24784;45.582;5.276;2023-02-15T09:34:24;46.53;;;26.52;;
39016;SDS011;24784;45.582;5.276;2023-02-15T09:36:50;36.78;;;24.15;;
39016;SDS011;24784;45.582;5.276;2023-02-15T09:39:17;33.05;;;19.65;;
39016;SDS011;24784;45.582;5.276;2023-02-15T09:41:50;31.52;;;18.33;;
39016;SDS011;24784;45.582;5.276;2023-02-15T09:47:10;37.40;;;18.60;;
39016;SDS011;24784;45.582;5.276;2023-02-15T09:52:48;32.55;;;16.60;;
39016;SDS011;24784;45.582;5.276;2023-02-15T09:58:20;29.60;;;16.10;;
39016;SDS011;24784;45.582;5.276;2023-02-15T10:12:23;28.00;;;15.40;;
39016;SDS011;24784;45.582;5.276;2023-02-15T10:23:38;25.63;;;14.98;;
39016;SDS011;24784;45.582;5.276;2023-02-15T10:26:31;27.52;;;15.05;;
39016;SDS011;24784;45.582;5.276;2023-02-15T10:50:51;24.63;;;15.00;;
39016;SDS011;24784;45.582;5.276;2023-02-15T10:56:24;16.95;;;11.30;;
39016;SDS011;24784;45.582;5.276;2023-02-15T11:01:59;15.88;;;8.93;;
39016;SDS011;24784;45.582;5.276;2023-02-15T11:07:11;11.38;;;6.97;;
39016;SDS011;24784;45.582;5.276;2023-02-15T11:12:47;13.38;;;6.93;;
39016;SDS011;24784;45.582;5.276;2023-02-15T11:15:36;12.20;;;6.95;;
39016;SDS011;24784;45.582;5.276;2023-02-15T11:26:34;12.13;;;7.50;;
39016;SDS011;24784;45.582;5.276;2023-02-15T11:28:53;10.98;;;7.20;;
39016;SDS011;24784;45.582;5.276;2023-02-15T11:31:25;11.80;;;8.00;;
39016;SDS011;24784;45.582;5.276;2023-02-15T11:33:53;12.45;;;8.27;;
39016;SDS011;24784;45.582;5.276;2023-02-15T11:36:33;12.20;;;7.75;;
39016;SDS011;24784;45.582;5.276;2023-02-15T11:39:03;10.90;;;7.25;;
39016;SDS011;24784;45.582;5.276;2023-02-15T11:41:36;13.75;;;8.85;;
39016;SDS011;24784;45.582;5.276;2023-02-15T11:47:10;15.90;;;8.65;;
39016;SDS011;24784;45.582;5.276;2023-02-15T11:49:37;12.65;;;8.35;;
39016;SDS011;24784;45.582;5.276;2023-02-15T11:52:07;15.90;;;8.90;;
39016;SDS011;24784;45.582;5.276;2023-02-15T11:54:39;13.88;;;8.13;;
39016;SDS011;24784;45.582;5.276;2023-02-15T12:02:29;15.10;;;9.85;;
39016;SDS011;24784;45.582;5.276;2023-02-15T12:04:59;15.45;;;10.13;;
39016;SDS011;24784;45.582;5.276;2023-02-15T12:07:36;15.60;;;8.95;;
39016;SDS011;24784;45.582;5.276;2023-02-15T12:13:07;15.13;;;9.60;;
39016;SDS011;24784;45.582;5.276;2023-02-15T12:15:35;18.83;;;10.85;;
39016;SDS011;24784;45.582;5.276;2023-02-15T12:18:01;13.02;;;9.13;;
39016;SDS011;24784;45.582;5.276;2023-02-15T12:20:33;16.13;;;9.13;;
39016;SDS011;24784;45.582;5.276;2023-02-15T12:23:14;16.55;;;8.95;;
39016;SDS011;24784;45.582;5.276;2023-02-15T12:25:51;14.73;;;8.95;;
39016;SDS011;24784;45.582;5.276;2023-02-15T12:28:23;13.75;;;8.50;;
39016;SDS011;24784;45.582;5.276;2023-02-15T12:31:02;13.98;;;9.25;;
39016;SDS011;24784;45.582;5.276;2023-02-15T12:33:38;14.40;;;8.98;;
39016;SDS011;24784;45.582;5.276;2023-02-15T12:41:46;12.70;;;7.43;;
39016;SDS011;24784;45.582;5.276;2023-02-15T12:44:27;14.98;;;7.70;;
39016;SDS011;24784;45.582;5.276;2023-02-15T12:49:32;10.25;;;6.63;;
39016;SDS011;24784;45.582;5.276;2023-02-15T12:52:03;10.73;;;6.20;;
39016;SDS011;24784;45.582;5.276;2023-02-15T12:57:23;12.18;;;6.00;;
39016;SDS011;24784;45.582;5.276;2023-02-15T13:05:28;11.90;;;7.78;;
39016;SDS011;24784;45.582;5.276;2023-02-15T13:08:01;9.23;;;6.43;;
39016;SDS011;24784;45.582;5.276;2023-02-15T13:10:55;8.70;;;5.78;;
39016;SDS011;24784;45.582;5.276;2023-02-15T13:13:27;6.95;;;4.90;;
39016;SDS011;24784;45.582;5.276;2023-02-15T13:15:59;8.18;;;5.47;;
39016;SDS011;24784;45.582;5.276;2023-02-15T13:18:39;9.90;;;5.28;;
39016;SDS011;24784;45.582;5.276;2023-02-15T13:23:50;7.82;;;5.65;;
39016;SDS011;24784;45.582;5.276;2023-02-15T13:26:37;8.23;;;5.25;;
39016;SDS011;24784;45.582;5.276;2023-02-15T13:29:07;9.93;;;5.38;;
39016;SDS011;24784;45.582;5.276;2023-02-15T13:31:40;10.65;;;5.40;;
39016;SDS011;24784;45.582;5.276;2023-02-15T13:34:12;6.50;;;4.70;;
39016;SDS011;24784;45.582;5.276;2023-02-15T13:36:47;11.05;;;4.97;;
39016;SDS011;24784;45.582;5.276;2023-02-15T13:39:20;8.32;;;4.40;;
39016;SDS011;24784;45.582;5.276;2023-02-15T13:42:46;8.18;;;4.07;;
39016;SDS011;24784;45.582;5.276;2023-02-15T13:48:20;6.68;;;4.18;;
39016;SDS011;24784;45.582;5.276;2023-02-15T13:56:49;5.38;;;3.22;;
39016;SDS011;24784;45.582;5.276;2023-02-15T14:07:16;7.32;;;3.78;;
39016;SDS011;24784;45.582;5.276;2023-02-15T14:10:05;13.00;;;4.18;;
39016;SDS011;24784;45.582;5.276;2023-02-15T14:32:18;4.63;;;3.67;;
39016;SDS011;24784;45.582;5.276;2023-02-15T14:35:12;3.60;;;3.05;;
39016;SDS011;24784;45.582;5.276;2023-02-15T14:43:08;5.05;;;3.40;;
39016;SDS011;24784;45.582;5.276;2023-02-15T14:45:52;8.02;;;3.88;;
39016;SDS011;24784;45.582;5.276;2023-02-15T14:48:33;6.38;;;3.85;;
39016;SDS011;24784;45.582;5.276;2023-02-15T14:51:06;7.45;;;3.95;;
39016;SDS011;24784;45.582;5.276;2023-02-15T14:53:36;8.38;;;4.35;;
39016;SDS011;24784;45.582;5.276;2023-02-15T14:56:13;6.68;;;3.88;;
39016;SDS011;24784;45.582;5.276;2023-02-15T15:01:14;5.45;;;3.78;;
39016;SDS011;24784;45.582;5.276;2023-02-15T15:03:48;8.57;;;3.92;;
39016;SDS011;24784;45.582;5.276;2023-02-15T15:06:29;8.50;;;4.28;;
39016;SDS011;24784;45.582;5.276;2023-02-15T15:09:05;6.07;;;3.42;;
39016;SDS011;24784;45.582;5.276;2023-02-15T15:11:47;6.63;;;3.72;;
39016;SDS011;24784;45.582;5.276;2023-02-15T15:16:59;6.35;;;4.45;;
39016;SDS011;24784;45.582;5.276;2023-02-15T15:20:13;10.50;;;5.18;;
39016;SDS011;24784;45.582;5.276;2023-02-15T15:22:28;8.80;;;4.43;;
39016;SDS011;24784;45.582;5.276;2023-02-15T15:24:56;5.63;;;4.05;;
39016;SDS011;24784;45.582;5.276;2023-02-15T15:49:42;5.13;;;3.80;;
39016;SDS011;24784;45.582;5.276;2023-02-15T15:52:12;4.38;;;3.40;;
39016;SDS011;24784;45.582;5.276;2023-02-15T15:54:43;7.18;;;3.40;;
39016;SDS011;24784;45.582;5.276;2023-02-15T15:57:32;4.28;;;3.20;;
39016;SDS011;24784;45.582;5.276;2023-02-15T15:59:58;7.28;;;3.40;;
39016;SDS011;24784;45.582;5.276;2023-02-15T16:02:25;7.63;;;3.30;;
39016;SDS011;24784;45.582;5.276;2023-02-15T16:04:51;6.75;;;3.10;;
39016;SDS011;24784;45.582;5.276;2023-02-15T16:10:03;7.45;;;4.57;;
39016;SDS011;24784;45.582;5.276;2023-02-15T16:12:45;6.07;;;3.40;;
39016;SDS011;24784;45.582;5.276;2023-02-15T16:15:14;7.20;;;3.00;;
39016;SDS011;24784;45.582;5.276;2023-02-15T16:17:45;5.72;;;3.65;;
39016;SDS011;24784;45.582;5.276;2023-02-15T16:20:15;4.57;;;2.97;;
39016;SDS011;24784;45.582;5.276;2023-02-15T16:22:43;6.32;;;2.80;;
39016;SDS011;24784;45.582;5.276;2023-02-15T16:27:46;5.25;;;3.20;;
39016;SDS011;24784;45.582;5.276;2023-02-15T16:33:11;7.70;;;4.00;;
39016;SDS011;24784;45.582;5.276;2023-02-15T16:35:40;6.22;;;3.50;;
39016;SDS011;24784;45.582;5.276;2023-02-15T16:38:19;7.47;;;3.80;;
39016;SDS011;24784;45.582;5.276;2023-02-15T16:41:07;4.20;;;2.85;;
39016;SDS011;24784;45.582;5.276;2023-02-15T16:43:36;7.68;;;3.45;;
39016;SDS011;24784;45.582;5.276;2023-02-15T16:46:03;10.13;;;3.92;;
39016;SDS011;24784;45.582;5.276;2023-02-15T16:48:31;4.70;;;3.47;;
39016;SDS011;24784;45.582;5.276;2023-02-15T16:51:00;7.07;;;3.53;;
39016;SDS011;24784;45.582;5.276;2023-02-15T16:53:27;5.40;;;3.70;;
39016;SDS011;24784;45.582;5.276;2023-02-15T16:55:54;7.57;;;3.90;;
39016;SDS011;24784;45.582;5.276;2023-02-15T16:58:30;7.25;;;4.72;;
39016;SDS011;24784;45.582;5.276;2023-02-15T17:01:16;13.45;;;4.78;;
39016;SDS011;24784;45.582;5.276;2023-02-15T17:03:49;8.60;;;4.95;;
39016;SDS011;24784;45.582;5.276;2023-02-15T17:08:45;9.02;;;4.45;;
39016;SDS011;24784;45.582;5.276;2023-02-15T17:16:32;13.00;;;8.05;;
39016;SDS011;24784;45.582;5.276;2023-02-15T17:19:01;8.15;;;5.32;;
39016;SDS011;24784;45.582;5.276;2023-02-15T17:21:33;8.32;;;5.00;;
39016;SDS011;24784;45.582;5.276;2023-02-15T17:24:05;9.32;;;4.32;;
39016;SDS011;24784;45.582;5.276;2023-02-15T17:26:32;16.55;;;10.23;;
39016;SDS011;24784;45.582;5.276;2023-02-15T17:31:52;21.33;;;13.68;;
39016;SDS011;24784;45.582;5.276;2023-02-15T17:35:24;25.33;;;15.43;;
39016;SDS011;24784;45.582;5.276;2023-02-15T17:40:16;16.50;;;9.80;;
39016;SDS011;24784;45.582;5.276;2023-02-15T17:42:49;16.75;;;9.35;;
39016;SDS011;24784;45.582;5.276;2023-02-15T17:45:16;11.63;;;7.50;;
39016;SDS011;24784;45.582;5.276;2023-02-15T17:47:42;9.90;;;5.18;;
39016;SDS011;24784;45.582;5.276;2023-02-15T17:50:15;10.07;;;5.20;;
39016;SDS011;24784;45.582;5.276;2023-02-15T17:52:47;10.80;;;5.35;;
39016;SDS011;24784;45.582;5.276;2023-02-15T17:55:14;9.18;;;5.60;;
39016;SDS011;24784;45.582;5.276;2023-02-15T17:58:01;11.70;;;5.47;;
39016;SDS011;24784;45.582;5.276;2023-02-15T18:00:29;10.80;;;5.07;;
39016;SDS011;24784;45.582;5.276;2023-02-15T18:03:14;9.32;;;5.68;;
39016;SDS011;24784;45.582;5.276;2023-02-15T18:05:59;9.52;;;5.75;;
39016;SDS011;24784;45.582;5.276;2023-02-15T18:08:43;8.75;;;5.53;;
39016;SDS011;24784;45.582;5.276;2023-02-15T18:11:27;12.65;;;6.18;;
39016;SDS011;24784;45.582;5.276;2023-02-15T18:14:11;11.25;;;7.03;;
39016;SDS011;24784;45.582;5.276;2023-02-15T18:16:37;11.82;;;6.90;;
39016;SDS011;24784;45.582;5.276;2023-02-15T18:19:17;17.83;;;7.85;;
39016;SDS011;24784;45.582;5.276;2023-02-15T18:21:52;21.25;;;9.77;;
39016;SDS011;24784;45.582;5.276;2023-02-15T18:24:22;17.70;;;9.75;;
39016;SDS011;24784;45.582;5.276;2023-02-15T18:26:49;16.90;;;9.05;;
39016;SDS011;24784;45.582;5.276;2023-02-15T18:29:15;19.23;;;9.07;;
39016;SDS011;24784;45.582;5.276;2023-02-15T18:31:41;13.85;;;8.95;;
39016;SDS011;24784;45.582;5.276;2023-02-15T18:34:29;16.75;;;8.63;;
39016;SDS011;24784;45.582;5.276;2023-02-15T18:37:02;18.25;;;8.25;;
39016;SDS011;24784;45.582;5.276;2023-02-15T18:42:04;14.27;;;9.32;;
39016;SDS011;24784;45.582;5.276;2023-02-15T18:44:42;15.95;;;8.95;;
39016;SDS011;24784;45.582;5.276;2023-02-15T18:47:13;12.88;;;7.20;;